sensor_id;sensor_type;location;lat;lon;timestamp;pressure;altitude;pressure_sealevel;temperature;humidity
79127;BME280;68528;48.814;8.904;2023-04-06T00:05:35;96617.53;;;-2.66;72.25
79127;BME280;68528;48.814;8.904;2023-04-06T00:08:00;96618.84;;;-2.64;71.63
79127;BME280;68528;48.814;8.904;2023-04-06T00:10:28;96615.41;;;-2.69;71.21
79127;BME280;68528;48.814;8.904;2023-04-06T00:12:54;96615.41;;;-2.74;71.49
79127;BME280;68528;48.814;8.904;2023-04-06T00:15:27;96602.06;;;-2.79;71.02
79127;BME280;68528;48.814;8.904;2023-04-06T00:17:52;96614.09;;;-2.77;71.49
79127;BME280;68528;48.814;8.904;2023-04-06T00:20:23;96604.22;;;-2.81;72.23
79127;BME280;68528;48.814;8.904;2023-04-06T00:23:12;96612.50;;;-2.83;71.70
79127;BME280;68528;48.814;8.904;2023-04-06T00:25:56;96603.94;;;-2.85;71.63
79127;BME280;68528;48.814;8.904;2023-04-06T00:28:23;96598.88;;;-2.91;71.89
79127;BME280;68528;48.814;8.904;2023-04-06T00:30:55;96602.09;;;-2.89;71.98
79127;BME280;68528;48.814;8.904;2023-04-06T00:33:21;96605.59;;;-2.94;71.85
79127;BME280;68528;48.814;8.904;2023-04-06T00:35:47;96601.59;;;-2.96;71.98
79127;BME280;68528;48.814;8.904;2023-04-06T00:38:14;96595.69;;;-2.98;71.70
79127;BME280;68528;48.814;8.904;2023-04-06T00:41:07;96606.66;;;-2.95;71.84
79127;BME280;68528;48.814;8.904;2023-04-06T00:43:40;96594.34;;;-3.01;71.59
79127;BME280;68528;48.814;8.904;2023-04-06T00:49:35;96589.28;;;-3.07;71.90
79127;BME280;68528;48.814;8.904;2023-04-06T00:52:01;96585.28;;;-3.10;71.73
79127;BME280;68528;48.814;8.904;2023-04-06T00:54:28;96589.56;;;-3.14;72.86
79127;BME280;68528;48.814;8.904;2023-04-06T00:57:05;96591.44;;;-3.09;72.98
79127;BME280;68528;48.814;8.904;2023-04-06T01:07:31;96575.63;;;-3.06;73.87
79127;BME280;68528;48.814;8.904;2023-04-06T01:10:26;96583.41;;;-3.04;73.68
79127;BME280;68528;48.814;8.904;2023-04-06T01:12:58;96577.00;;;-3.08;73.27
79127;BME280;68528;48.814;8.904;2023-04-06T01:15:36;96574.31;;;-3.13;72.98
79127;BME280;68528;48.814;8.904;2023-04-06T01:18:34;96572.69;;;-3.14;72.85
79127;BME280;68528;48.814;8.904;2023-04-06T01:21:09;96578.06;;;-3.14;73.44
79127;BME280;68528;48.814;8.904;2023-04-06T01:23:44;96570.28;;;-3.16;73.52
79127;BME280;68528;48.814;8.904;2023-04-06T01:26:10;96572.72;;;-3.20;73.87
79127;BME280;68528;48.814;8.904;2023-04-06T01:28:36;96567.66;;;-3.21;73.87
79127;BME280;68528;48.814;8.904;2023-04-06T01:31:03;96560.41;;;-3.21;73.50
79127;BME280;68528;48.814;8.904;2023-04-06T01:33:34;96555.59;;;-3.24;73.68
79127;BME280;68528;48.814;8.904;2023-04-06T01:36:20;96567.34;;;-3.14;73.78
79127;BME280;68528;48.814;8.904;2023-04-06T01:38:47;96569.50;;;-3.17;73.68
79127;BME280;68528;48.814;8.904;2023-04-06T01:41:16;96560.41;;;-3.15;74.07
79127;BME280;68528;48.814;8.904;2023-04-06T01:43:41;96557.72;;;-3.15;73.47
79127;BME280;68528;48.814;8.904;2023-04-06T01:46:07;96558.25;;;-3.13;73.78
79127;BME280;68528;48.814;8.904;2023-04-06T01:48:32;96564.13;;;-3.11;74.17
79127;BME280;68528;48.814;8.904;2023-04-06T01:54:48;96559.00;;;-3.08;73.54
79127;BME280;68528;48.814;8.904;2023-04-06T01:57:18;96552.34;;;-3.15;73.48
79127;BME280;68528;48.814;8.904;2023-04-06T01:59:44;96559.59;;;-3.16;73.66
79127;BME280;68528;48.814;8.904;2023-04-06T02:02:34;96553.94;;;-3.14;73.74
79127;BME280;68528;48.814;8.904;2023-04-06T02:05:30;96554.22;;;-3.16;74.18
79127;BME280;68528;48.814;8.904;2023-04-06T02:07:56;96549.16;;;-3.17;73.80
79127;BME280;68528;48.814;8.904;2023-04-06T02:10:54;96552.13;;;-3.19;73.81
79127;BME280;68528;48.814;8.904;2023-04-06T02:16:41;96559.09;;;-3.28;73.52
79127;BME280;68528;48.814;8.904;2023-04-06T02:19:07;96549.72;;;-3.26;74.84
79127;BME280;68528;48.814;8.904;2023-04-06T02:21:32;96551.34;;;-3.30;74.66
79127;BME280;68528;48.814;8.904;2023-04-06T02:23:58;96554.81;;;-3.29;74.43
79127;BME280;68528;48.814;8.904;2023-04-06T02:26:23;96559.91;;;-3.28;74.33
79127;BME280;68528;48.814;8.904;2023-04-06T02:34:41;96542.22;;;-3.29;74.34
79127;BME280;68528;48.814;8.904;2023-04-06T02:37:07;96536.34;;;-3.31;74.67
79127;BME280;68528;48.814;8.904;2023-04-06T02:39:32;96543.84;;;-3.33;73.99
79127;BME280;68528;48.814;8.904;2023-04-06T02:41:58;96541.44;;;-3.39;74.00
79127;BME280;68528;48.814;8.904;2023-04-06T02:44:46;96543.88;;;-3.43;73.96
79127;BME280;68528;48.814;8.904;2023-04-06T02:47:22;96542.81;;;-3.47;75.86
79127;BME280;68528;48.814;8.904;2023-04-06T02:50:20;96541.69;;;-3.36;75.85
79127;BME280;68528;48.814;8.904;2023-04-06T02:53:10;96538.25;;;-3.41;75.19
79127;BME280;68528;48.814;8.904;2023-04-06T02:55:35;96525.69;;;-3.46;75.23
79127;BME280;68528;48.814;8.904;2023-04-06T02:58:01;96535.88;;;-3.53;75.09
79127;BME280;68528;48.814;8.904;2023-04-06T03:00:26;96537.75;;;-3.53;75.80
79127;BME280;68528;48.814;8.904;2023-04-06T03:02:52;96531.06;;;-3.51;76.01
79127;BME280;68528;48.814;8.904;2023-04-06T03:05:23;96541.78;;;-3.51;75.12
79127;BME280;68528;48.814;8.904;2023-04-06T03:08:20;96534.78;;;-3.52;75.08
79127;BME280;68528;48.814;8.904;2023-04-06T03:10:46;96545.78;;;-3.53;75.53
79127;BME280;68528;48.814;8.904;2023-04-06T03:13:11;96542.81;;;-3.57;75.21
79127;BME280;68528;48.814;8.904;2023-04-06T03:15:37;96539.09;;;-3.56;75.85
79127;BME280;68528;48.814;8.904;2023-04-06T03:18:02;96535.63;;;-3.61;76.93
79127;BME280;68528;48.814;8.904;2023-04-06T03:20:28;96547.94;;;-3.60;76.29
79127;BME280;68528;48.814;8.904;2023-04-06T03:22:53;96535.63;;;-3.61;76.25
79127;BME280;68528;48.814;8.904;2023-04-06T03:25:47;96537.50;;;-3.62;76.08
79127;BME280;68528;48.814;8.904;2023-04-06T03:28:13;96536.44;;;-3.66;75.52
79127;BME280;68528;48.814;8.904;2023-04-06T03:30:56;96543.66;;;-3.66;76.02
79127;BME280;68528;48.814;8.904;2023-04-06T03:33:35;96547.69;;;-3.69;76.66
79127;BME280;68528;48.814;8.904;2023-04-06T03:36:11;96544.47;;;-3.71;75.98
79127;BME280;68528;48.814;8.904;2023-04-06T03:38:36;96540.75;;;-3.75;76.07
79127;BME280;68528;48.814;8.904;2023-04-06T03:41:34;96541.00;;;-3.71;76.43
79127;BME280;68528;48.814;8.904;2023-04-06T03:47:07;96541.53;;;-3.74;76.26
79127;BME280;68528;48.814;8.904;2023-04-06T03:49:34;96548.78;;;-3.70;77.07
79127;BME280;68528;48.814;8.904;2023-04-06T03:52:00;96543.13;;;-3.73;76.61
79127;BME280;68528;48.814;8.904;2023-04-06T03:54:27;96550.34;;;-3.69;76.43
79127;BME280;68528;48.814;8.904;2023-04-06T03:56:53;96549.03;;;-3.66;76.66
79127;BME280;68528;48.814;8.904;2023-04-06T03:59:18;96552.75;;;-3.62;76.43
79127;BME280;68528;48.814;8.904;2023-04-06T04:05:21;96549.28;;;-3.58;76.78
79127;BME280;68528;48.814;8.904;2023-04-06T04:08:11;96564.81;;;-3.60;76.95
79127;BME280;68528;48.814;8.904;2023-04-06T04:11:01;96556.78;;;-3.65;76.67
79127;BME280;68528;48.814;8.904;2023-04-06T04:13:27;96565.31;;;-3.63;76.45
79127;BME280;68528;48.814;8.904;2023-04-06T04:16:13;96562.69;;;-3.68;76.59
79127;BME280;68528;48.814;8.904;2023-04-06T04:18:41;96558.91;;;-3.62;77.03
79127;BME280;68528;48.814;8.904;2023-04-06T04:21:41;96565.84;;;-3.56;76.69
79127;BME280;68528;48.814;8.904;2023-04-06T04:24:08;96554.66;;;-3.68;76.56
79127;BME280;68528;48.814;8.904;2023-04-06T04:26:35;96560.00;;;-3.73;76.51
79127;BME280;68528;48.814;8.904;2023-04-06T04:29:06;96558.41;;;-3.74;76.63
79127;BME280;68528;48.814;8.904;2023-04-06T04:31:35;96551.97;;;-3.78;76.54
79127;BME280;68528;48.814;8.904;2023-04-06T04:34:01;96558.94;;;-3.77;76.20
79127;BME280;68528;48.814;8.904;2023-04-06T04:36:27;96572.03;;;-3.70;76.35
79127;BME280;68528;48.814;8.904;2023-04-06T04:39:01;96567.50;;;-3.75;76.38
79127;BME280;68528;48.814;8.904;2023-04-06T04:41:50;96566.97;;;-3.72;76.79
79127;BME280;68528;48.814;8.904;2023-04-06T04:44:37;96560.53;;;-3.76;76.60
79127;BME280;68528;48.814;8.904;2023-04-06T04:47:03;96565.88;;;-3.76;76.92
79127;BME280;68528;48.814;8.904;2023-04-06T04:49:28;96565.34;;;-3.68;76.95
79127;BME280;68528;48.814;8.904;2023-04-06T04:51:54;96576.06;;;-3.73;76.51
79127;BME280;68528;48.814;8.904;2023-04-06T04:54:19;96565.88;;;-3.76;77.40
79127;BME280;68528;48.814;8.904;2023-04-06T04:57:10;96576.88;;;-3.72;77.00
79127;BME280;68528;48.814;8.904;2023-04-06T04:59:38;96573.38;;;-3.78;77.00
79127;BME280;68528;48.814;8.904;2023-04-06T05:02:04;96577.38;;;-3.75;76.00
79127;BME280;68528;48.814;8.904;2023-04-06T05:04:33;96573.13;;;-3.76;77.08
79127;BME280;68528;48.814;8.904;2023-04-06T05:07:19;96573.91;;;-3.71;77.26
79127;BME280;68528;48.814;8.904;2023-04-06T05:09:46;96568.56;;;-3.71;76.25
79127;BME280;68528;48.814;8.904;2023-04-06T05:12:13;96579.78;;;-3.64;77.06
79127;BME280;68528;48.814;8.904;2023-04-06T05:14:53;96575.50;;;-3.60;75.75
79127;BME280;68528;48.814;8.904;2023-04-06T05:17:34;96579.78;;;-3.54;77.04
79127;BME280;68528;48.814;8.904;2023-04-06T05:20:01;96572.81;;;-3.55;76.35
79127;BME280;68528;48.814;8.904;2023-04-06T05:22:29;96578.16;;;-3.50;75.44
79127;BME280;68528;48.814;8.904;2023-04-06T05:24:56;96585.38;;;-3.45;75.58
79127;BME280;68528;48.814;8.904;2023-04-06T05:27:22;96584.03;;;-3.43;76.38
79127;BME280;68528;48.814;8.904;2023-04-06T05:29:48;96583.75;;;-3.36;76.26
79127;BME280;68528;48.814;8.904;2023-04-06T05:32:28;96571.16;;;-3.31;75.99
79127;BME280;68528;48.814;8.904;2023-04-06T05:35:30;96579.97;;;-3.20;75.57
79127;BME280;68528;48.814;8.904;2023-04-06T05:38:17;96578.31;;;-3.11;75.64
79127;BME280;68528;48.814;8.904;2023-04-06T05:40:42;96574.84;;;-3.06;74.81
79127;BME280;68528;48.814;8.904;2023-04-06T05:43:08;96573.97;;;-2.97;74.39
79127;BME280;68528;48.814;8.904;2023-04-06T05:45:36;96575.25;;;-2.84;74.38
79127;BME280;68528;48.814;8.904;2023-04-06T05:48:02;96583.53;;;-2.71;74.29
79127;BME280;68528;48.814;8.904;2023-04-06T05:54:27;96592.16;;;-2.35;74.01
79127;BME280;68528;48.814;8.904;2023-04-06T05:57:39;96583.44;;;-2.17;73.31
79127;BME280;68528;48.814;8.904;2023-04-06T06:00:10;96588.25;;;-1.46;71.93
79127;BME280;68528;48.814;8.904;2023-04-06T06:02:38;96584.03;;;-0.21;67.75
79127;BME280;68528;48.814;8.904;2023-04-06T06:05:29;96586.78;;;0.90;64.01
79127;BME280;68528;48.814;8.904;2023-04-06T06:08:26;96582.97;;;1.72;61.16
79127;BME280;68528;48.814;8.904;2023-04-06T06:11:16;96574.69;;;2.49;58.43
79127;BME280;68528;48.814;8.904;2023-04-06T06:13:57;96574.34;;;3.03;56.54
79127;BME280;68528;48.814;8.904;2023-04-06T06:25:19;96578.53;;;4.76;51.55
79127;BME280;68528;48.814;8.904;2023-04-06T06:28:02;96574.91;;;5.19;50.16
79127;BME280;68528;48.814;8.904;2023-04-06T06:30:30;96575.41;;;5.50;49.08
79127;BME280;68528;48.814;8.904;2023-04-06T06:33:27;96572.47;;;5.93;48.81
79127;BME280;68528;48.814;8.904;2023-04-06T06:36:20;96576.88;;;6.26;47.60
79127;BME280;68528;48.814;8.904;2023-04-06T06:38:46;96578.16;;;6.62;45.79
79127;BME280;68528;48.814;8.904;2023-04-06T07:53:34;96597.81;;;9.43;39.50
79127;BME280;68528;48.814;8.904;2023-04-06T07:56:11;96582.38;;;9.51;38.54
79127;BME280;68528;48.814;8.904;2023-04-06T07:58:55;96580.19;;;10.22;36.95
79127;BME280;68528;48.814;8.904;2023-04-06T08:01:26;96580.31;;;10.10;36.61
79127;BME280;68528;48.814;8.904;2023-04-06T08:10:19;96585.03;;;9.79;37.62
79127;BME280;68528;48.814;8.904;2023-04-06T08:12:52;96587.59;;;10.38;37.36
79127;BME280;68528;48.814;8.904;2023-04-06T08:22:19;96581.41;;;9.75;38.80
79127;BME280;68528;48.814;8.904;2023-04-06T08:24:45;96584.22;;;9.94;38.62
79127;BME280;68528;48.814;8.904;2023-04-06T08:27:10;96583.38;;;9.59;35.15
79127;BME280;68528;48.814;8.904;2023-04-06T08:29:37;96587.75;;;9.94;33.65
79127;BME280;68528;48.814;8.904;2023-04-06T08:32:02;96587.63;;;10.06;33.08
79127;BME280;68528;48.814;8.904;2023-04-06T08:34:31;96573.09;;;10.37;33.11
79127;BME280;68528;48.814;8.904;2023-04-06T08:40:14;96579.31;;;10.53;32.18
79127;BME280;68528;48.814;8.904;2023-04-06T08:46:01;96568.78;;;12.03;28.54
79127;BME280;68528;48.814;8.904;2023-04-06T08:48:42;96573.25;;;12.41;28.40
79127;BME280;68528;48.814;8.904;2023-04-06T08:51:37;96571.38;;;12.78;28.86
79127;BME280;68528;48.814;8.904;2023-04-06T09:01:27;96580.59;;;13.26;28.63
79127;BME280;68528;48.814;8.904;2023-04-06T09:04:13;96564.47;;;12.91;28.75
79127;BME280;68528;48.814;8.904;2023-04-06T09:06:42;96571.09;;;13.20;28.45
79127;BME280;68528;48.814;8.904;2023-04-06T10:39:23;96562.56;;;12.66;27.43
79127;BME280;68528;48.814;8.904;2023-04-06T10:41:49;96555.34;;;11.07;26.07
79127;BME280;68528;48.814;8.904;2023-04-06T10:51:07;96549.75;;;11.91;29.07
79127;BME280;68528;48.814;8.904;2023-04-06T10:53:34;96551.59;;;12.66;26.88
79127;BME280;68528;48.814;8.904;2023-04-06T10:56:00;96547.09;;;13.13;25.65
79127;BME280;68528;48.814;8.904;2023-04-06T10:58:27;96545.19;;;13.61;24.36
79127;BME280;68528;48.814;8.904;2023-04-06T11:00:56;96534.38;;;13.38;24.44
79127;BME280;68528;48.814;8.904;2023-04-06T11:07:03;96544.31;;;14.01;24.38
79127;BME280;68528;48.814;8.904;2023-04-06T11:09:36;96533.69;;;13.99;23.37
79127;BME280;68528;48.814;8.904;2023-04-06T11:12:32;96534.34;;;13.86;25.10
79127;BME280;68528;48.814;8.904;2023-04-06T11:15:16;96535.50;;;13.81;23.89
79127;BME280;68528;48.814;8.904;2023-04-06T11:18:03;96520.66;;;13.05;25.14
79127;BME280;68528;48.814;8.904;2023-04-06T11:20:49;96525.44;;;12.45;26.85
79127;BME280;68528;48.814;8.904;2023-04-06T11:48:44;96504.44;;;12.30;26.21
79127;BME280;68528;48.814;8.904;2023-04-06T11:51:23;96507.06;;;11.45;27.22
79127;BME280;68528;48.814;8.904;2023-04-06T11:54:04;96495.91;;;11.57;29.08
79127;BME280;68528;48.814;8.904;2023-04-06T11:56:32;96489.06;;;11.96;28.06
79127;BME280;68528;48.814;8.904;2023-04-06T11:59:23;96496.28;;;11.33;25.63
79127;BME280;68528;48.814;8.904;2023-04-06T12:02:09;96479.66;;;10.99;27.22
79127;BME280;68528;48.814;8.904;2023-04-06T12:05:05;96482.19;;;10.66;27.57
79127;BME280;68528;48.814;8.904;2023-04-06T12:07:35;96481.53;;;11.18;27.96
79127;BME280;68528;48.814;8.904;2023-04-06T12:10:05;96484.50;;;11.55;26.58
79127;BME280;68528;48.814;8.904;2023-04-06T12:12:52;96478.63;;;11.07;26.93
79127;BME280;68528;48.814;8.904;2023-04-06T12:15:18;96487.66;;;10.66;27.22
79127;BME280;68528;48.814;8.904;2023-04-06T12:17:51;96478.16;;;10.41;31.57
79127;BME280;68528;48.814;8.904;2023-04-06T12:21:30;96478.38;;;10.93;29.36
79127;BME280;68528;48.814;8.904;2023-04-06T12:23:57;96474.22;;;11.26;30.74
79127;BME280;68528;48.814;8.904;2023-04-06T12:26:26;96468.94;;;11.62;28.29
79127;BME280;68528;48.814;8.904;2023-04-06T12:28:53;96464.59;;;11.84;28.25
79127;BME280;68528;48.814;8.904;2023-04-06T12:31:23;96461.44;;;11.82;29.50
79127;BME280;68528;48.814;8.904;2023-04-06T12:33:51;96468.56;;;11.38;26.25
79127;BME280;68528;48.814;8.904;2023-04-06T12:40:03;96457.50;;;11.57;28.70
79127;BME280;68528;48.814;8.904;2023-04-06T12:42:29;96456.69;;;12.09;29.55
79127;BME280;68528;48.814;8.904;2023-04-06T12:44:55;96454.63;;;12.32;28.73
79127;BME280;68528;48.814;8.904;2023-04-06T12:47:21;96461.28;;;12.60;28.01
79127;BME280;68528;48.814;8.904;2023-04-06T12:49:47;96446.13;;;11.81;27.28
79127;BME280;68528;48.814;8.904;2023-04-06T12:52:13;96451.72;;;11.88;28.71
79127;BME280;68528;48.814;8.904;2023-04-06T12:58:07;96455.56;;;11.09;29.65
79127;BME280;68528;48.814;8.904;2023-04-06T13:00:32;96449.69;;;11.33;29.50
79127;BME280;68528;48.814;8.904;2023-04-06T13:02:58;96453.09;;;10.81;28.63
79127;BME280;68528;48.814;8.904;2023-04-06T13:05:32;96452.63;;;10.98;30.46
79127;BME280;68528;48.814;8.904;2023-04-06T13:08:04;96457.59;;;11.38;30.46
79127;BME280;68528;48.814;8.904;2023-04-06T13:10:32;96450.25;;;11.45;28.64
79127;BME280;68528;48.814;8.904;2023-04-06T13:16:38;96449.13;;;11.24;28.66
79127;BME280;68528;48.814;8.904;2023-04-06T13:19:24;96435.13;;;11.29;29.01
79127;BME280;68528;48.814;8.904;2023-04-06T13:21:50;96437.44;;;11.27;29.82
79127;BME280;68528;48.814;8.904;2023-04-06T13:24:16;96440.94;;;11.50;30.07
79127;BME280;68528;48.814;8.904;2023-04-06T13:26:42;96429.59;;;11.74;31.10
79127;BME280;68528;48.814;8.904;2023-04-06T13:29:07;96432.19;;;11.93;30.28
79127;BME280;68528;48.814;8.904;2023-04-06T13:31:49;96423.47;;;11.88;29.53
79127;BME280;68528;48.814;8.904;2023-04-06T13:37:39;96429.34;;;11.86;30.07
79127;BME280;68528;48.814;8.904;2023-04-06T13:40:06;96424.41;;;11.69;29.50
79127;BME280;68528;48.814;8.904;2023-04-06T13:42:31;96425.03;;;11.59;28.70
79127;BME280;68528;48.814;8.904;2023-04-06T13:44:58;96429.66;;;11.55;29.78
79127;BME280;68528;48.814;8.904;2023-04-06T13:47:37;96429.06;;;11.95;29.61
79127;BME280;68528;48.814;8.904;2023-04-06T13:50:03;96427.59;;;12.01;30.01
79127;BME280;68528;48.814;8.904;2023-04-06T13:52:29;96422.47;;;12.32;29.41
79127;BME280;68528;48.814;8.904;2023-04-06T13:54:55;96427.59;;;12.01;29.26
79127;BME280;68528;48.814;8.904;2023-04-06T13:57:20;96429.47;;;11.67;31.16
79127;BME280;68528;48.814;8.904;2023-04-06T13:59:45;96435.16;;;11.81;30.68
79127;BME280;68528;48.814;8.904;2023-04-06T14:02:29;96429.63;;;11.77;30.62
79127;BME280;68528;48.814;8.904;2023-04-06T14:04:56;96425.28;;;11.76;29.98
79127;BME280;68528;48.814;8.904;2023-04-06T14:11:16;96424.63;;;11.60;30.55
79127;BME280;68528;48.814;8.904;2023-04-06T14:13:52;96418.28;;;11.53;30.54
79127;BME280;68528;48.814;8.904;2023-04-06T14:16:18;96431.22;;;11.56;30.68
79127;BME280;68528;48.814;8.904;2023-04-06T14:18:44;96429.00;;;11.39;29.34
79127;BME280;68528;48.814;8.904;2023-04-06T14:21:10;96431.84;;;11.20;30.15
79127;BME280;68528;48.814;8.904;2023-04-06T14:23:38;96424.09;;;11.02;31.87
79127;BME280;68528;48.814;8.904;2023-04-06T14:26:22;96423.75;;;11.04;29.37
79127;BME280;68528;48.814;8.904;2023-04-06T14:32:20;96431.38;;;10.91;31.70
79127;BME280;68528;48.814;8.904;2023-04-06T14:34:53;96428.63;;;10.91;31.29
79127;BME280;68528;48.814;8.904;2023-04-06T14:37:21;96420.28;;;10.84;31.06
79127;BME280;68528;48.814;8.904;2023-04-06T14:39:47;96414.88;;;10.88;31.54
79127;BME280;68528;48.814;8.904;2023-04-06T14:42:15;96419.31;;;10.96;32.69
79127;BME280;68528;48.814;8.904;2023-04-06T14:45:02;96428.75;;;10.98;31.65
79127;BME280;68528;48.814;8.904;2023-04-06T14:47:36;96426.09;;;11.02;31.67
79127;BME280;68528;48.814;8.904;2023-04-06T14:50:02;96420.09;;;10.96;31.22
79127;BME280;68528;48.814;8.904;2023-04-06T14:52:27;96418.09;;;10.93;31.60
79127;BME280;68528;48.814;8.904;2023-04-06T14:54:53;96424.16;;;10.83;32.05
79127;BME280;68528;48.814;8.904;2023-04-06T14:57:19;96420.28;;;10.84;32.08
79127;BME280;68528;48.814;8.904;2023-04-06T14:59:56;96431.06;;;10.74;32.86
79127;BME280;68528;48.814;8.904;2023-04-06T15:02:44;96418.22;;;10.78;31.92
79127;BME280;68528;48.814;8.904;2023-04-06T15:05:09;96421.31;;;10.76;31.85
79127;BME280;68528;48.814;8.904;2023-04-06T15:07:38;96426.38;;;10.74;33.24
79127;BME280;68528;48.814;8.904;2023-04-06T15:10:11;96430.22;;;10.70;32.10
79127;BME280;68528;48.814;8.904;2023-04-06T15:12:37;96422.28;;;10.65;33.08
79127;BME280;68528;48.814;8.904;2023-04-06T15:15:03;96433.00;;;10.73;34.67
79127;BME280;68528;48.814;8.904;2023-04-06T15:17:30;96418.50;;;10.73;32.96
79127;BME280;68528;48.814;8.904;2023-04-06T15:19:56;96426.06;;;10.79;33.17
79127;BME280;68528;48.814;8.904;2023-04-06T15:33:46;96430.16;;;10.66;34.19
79127;BME280;68528;48.814;8.904;2023-04-06T16:59:24;96435.78;;;9.27;34.68
79127;BME280;68528;48.814;8.904;2023-04-06T17:01:52;96436.50;;;9.24;34.93
79127;BME280;68528;48.814;8.904;2023-04-06T17:04:24;96439.50;;;9.19;35.79
79127;BME280;68528;48.814;8.904;2023-04-06T17:06:53;96422.91;;;9.12;35.89
79127;BME280;68528;48.814;8.904;2023-04-06T17:09:21;96424.69;;;9.05;35.95
79127;BME280;68528;48.814;8.904;2023-04-06T17:27:03;96449.56;;;8.84;37.18
79127;BME280;68528;48.814;8.904;2023-04-06T17:29:34;96450.97;;;8.78;37.50
79127;BME280;68528;48.814;8.904;2023-04-06T17:35:07;96449.00;;;8.63;37.81
79127;BME280;68528;48.814;8.904;2023-04-06T17:37:33;96440.16;;;8.54;38.56
79127;BME280;68528;48.814;8.904;2023-04-06T17:39:58;96442.00;;;8.50;37.95
79127;BME280;68528;48.814;8.904;2023-04-06T17:42:24;96447.91;;;8.52;38.29
79127;BME280;68528;48.814;8.904;2023-04-06T17:44:57;96446.22;;;8.47;38.70
79127;BME280;68528;48.814;8.904;2023-04-06T18:02:23;96458.81;;;8.24;39.41
79127;BME280;68528;48.814;8.904;2023-04-06T20:07:27;96534.09;;;6.80;61.07
79127;BME280;68528;48.814;8.904;2023-04-06T20:09:54;96537.38;;;6.74;58.43
79127;BME280;68528;48.814;8.904;2023-04-06T20:12:19;96529.06;;;6.58;60.00
79127;BME280;68528;48.814;8.904;2023-04-06T20:18:31;96527.44;;;6.57;60.78
79127;BME280;68528;48.814;8.904;2023-04-06T20:20:57;96534.28;;;6.63;60.86
79127;BME280;68528;48.814;8.904;2023-04-06T20:23:22;96525.72;;;6.53;62.47
79127;BME280;68528;48.814;8.904;2023-04-06T20:25:48;96523.78;;;6.41;61.17
79127;BME280;68528;48.814;8.904;2023-04-06T20:28:14;96531.56;;;6.30;61.78
79127;BME280;68528;48.814;8.904;2023-04-06T20:30:40;96523.00;;;6.20;64.28
79127;BME280;68528;48.814;8.904;2023-04-06T20:36:52;96530.63;;;6.26;64.99
79127;BME280;68528;48.814;8.904;2023-04-06T20:39:18;96521.56;;;6.22;64.67
79127;BME280;68528;48.814;8.904;2023-04-06T20:41:43;96523.00;;;6.20;65.73
79127;BME280;68528;48.814;8.904;2023-04-06T20:44:09;96533.69;;;6.25;65.04
79127;BME280;68528;48.814;8.904;2023-04-06T20:46:35;96534.88;;;6.15;65.21
79127;BME280;68528;48.814;8.904;2023-04-06T20:49:01;96517.81;;;6.06;66.19
79127;BME280;68528;48.814;8.904;2023-04-06T20:58:17;96525.66;;;5.87;67.50
79127;BME280;68528;48.814;8.904;2023-04-06T21:00:46;96520.09;;;5.84;67.55
79127;BME280;68528;48.814;8.904;2023-04-06T21:03:16;96523.75;;;5.79;68.25
79127;BME280;68528;48.814;8.904;2023-04-06T21:05:56;96534.59;;;5.58;69.94
79127;BME280;68528;48.814;8.904;2023-04-06T21:08:22;96526.38;;;5.46;72.01
79127;BME280;68528;48.814;8.904;2023-04-06T21:17:15;96531.34;;;5.15;74.64
79127;BME280;68528;48.814;8.904;2023-04-06T21:23:36;96519.06;;;5.01;75.40
79127;BME280;68528;48.814;8.904;2023-04-06T21:26:24;96520.38;;;4.95;77.25
